Portada
METAR-TAF:

METAR-TAF

Aeroports :

Auburn/Lewiston Municipal Airport

Auburn-Lewiston, Maine, Estats Units d'Amèrica

latitud: 44-03N, longitud: 070-17W, altitud: 88 m

Observació

L'informe es va fer fa 22 minuts, a les 11:56 UTC
Vent calma
Temperatura 10°C
Humitat 100%
Pressió 1024 hPa
Visibilitat: 0.4 km
Cel cobert a una alçada de 300 ft
boira

METAR: KLEW 221156Z AUTO 00000KT 1/4SM FG OVC003 10/10 A3025 RMK AO2 SLP252 60001 70002 T01000100 10128 20100 52017

Hora: 08:18 (12:18 UTC)


TAF: manca

Observacions i pronòstics meteorològics de més de 4000 aeroports (METAR i TAF).

Les estacions disponibles són els punts grocs i vermells al mapa.

Posi el ratolí al punt desitjat per veure el nom de l'estació.

Feu clic per veure les observacions i els pronòstics meteorològics.

Per canviar el mapa: feu clic els botons verds amb una creu de color negre per apropar; al botó verd amb un guió per allunyar la imatge; o en les fletxes verdes per a mapes adjacents.


METAR-TAF: